WXM80 ListenWXM80 Stop

You find our weather info also at:

UK Metoffice

WeatherCloud

Weather Underground

Northeastern Weather Network

AWEKAS

Citizen Weather Observer Program (CWOP)

HAMweather, WeatherForYou, PWS Weather


Weather Underground History page Text

Daily Summary for August 31, 2017 Units:  Both    English   Metric
« Previous Day
Next Day »
Daily Weekly Monthly Yearly Custom
  High: Low: Average:
Temperature: 85.5 °F /  29.7 °C 63.5 °F /  17.5 °C 71.4 °F /  21.9 °C
Dew Point: 68.9 °F /  20.5 °C 53.4 °F /  11.9 °C 61.7 °F /  16.5 °C
Humidity: 90 % 50 % 73 %
Wind Speed: 8.3 mph /  13.4 km/h - 2.3 mph /  3.7 km/h
Wind Gust: 16.0 mph /  25.7 km/h - -
Wind:- - WSW
Pressure: 29.93 in /  1013.4 hPa 29.81 in /  1009.4 hPa -
Precipitation: 0.00 in /  0 mm    
Historical Graphs
 
 
Tabular Data for August 31, 2017
Time Temperature Dew Point Pressure Wind Wind Speed Wind Gust Humidity Rainfall Rate (Hourly)
00:04 65.1 °F /  18.4 °C 59.5 °F /  15.3 °C 29.86 in /  1011.1 hPa WSW 0.2 mph /  0.3 km/h 1.2 mph /  1.9 km/h 82 % 0.00 in /  0 mm
00:09 65.2 °F /  18.4 °C 59.6 °F /  15.3 °C 29.86 in /  1011.1 hPa SSW 0.3 mph /  0.5 km/h 3.5 mph /  5.6 km/h 82 % 0.00 in /  0 mm
00:14 65.2 °F /  18.4 °C 59.6 °F /  15.3 °C 29.86 in /  1011.1 hPa SW 0.4 mph /  0.6 km/h 1.2 mph /  1.9 km/h 82 % 0.00 in /  0 mm
00:19 65.2 °F /  18.4 °C 59.6 °F /  15.3 °C 29.86 in /  1011.1 hPa SW 0.7 mph /  1.1 km/h 3.5 mph /  5.6 km/h 82 % 0.00 in /  0 mm
00:24 65.2 °F /  18.4 °C 59.9 °F /  15.5 °C 29.86 in /  1011.1 hPa SW 0.5 mph /  0.8 km/h 2.3 mph /  3.7 km/h 83 % 0.00 in /  0 mm
00:29 65.2 °F /  18.4 °C 59.9 °F /  15.5 °C 29.86 in /  1011.1 hPa SW 0.1 mph /  0.2 km/h 1.2 mph /  1.9 km/h 83 % 0.00 in /  0 mm
00:34 65.2 °F /  18.4 °C 59.9 °F /  15.5 °C 29.86 in /  1011.1 hPa SW 0.1 mph /  0.2 km/h 1.2 mph /  1.9 km/h 83 % 0.00 in /  0 mm
00:39 65.2 °F /  18.4 °C 59.9 °F /  15.5 °C 29.86 in /  1011.1 hPa Calm   1.2 mph /  1.9 km/h 83 % 0.00 in /  0 mm
00:44 65.2 °F /  18.4 °C 59.9 °F /  15.5 °C 29.86 in /  1011.1 hPa Calm   1.2 mph /  1.9 km/h 83 % 0.00 in /  0 mm
00:49 65.2 °F /  18.4 °C 59.9 °F /  15.5 °C 29.86 in /  1011.1 hPa West 1.1 mph /  1.8 km/h 3.5 mph /  5.6 km/h 83 % 0.00 in /  0 mm
00:55 65.2 °F /  18.4 °C 59.9 °F /  15.5 °C 29.86 in /  1011.1 hPa West 1.2 mph /  1.9 km/h 2.0 mph /  3.2 km/h 83 % 0.00 in /  0 mm
01:00 65.2 °F /  18.4 °C 59.9 °F /  15.5 °C 29.86 in /  1011.1 hPa Calm   1.2 mph /  1.9 km/h 83 % 0.00 in /  0 mm
01:05 65.2 °F /  18.4 °C 60.2 °F /  15.7 °C 29.86 in /  1011.1 hPa WSW 0.2 mph /  0.3 km/h 3.5 mph /  5.6 km/h 84 % 0.00 in /  0 mm
01:10 65.2 °F /  18.4 °C 60.2 °F /  15.7 °C 29.86 in /  1011.1 hPa SW 1.9 mph /  3.1 km/h 3.5 mph /  5.6 km/h 84 % 0.00 in /  0 mm
01:15 65.2 °F /  18.4 °C 60.2 °F /  15.7 °C 29.86 in /  1011.1 hPa WSW 1.7 mph /  2.7 km/h 5.0 mph /  8 km/h 84 % 0.00 in /  0 mm
01:20 65.2 °F /  18.4 °C 60.2 °F /  15.7 °C 29.85 in /  1010.7 hPa WSW 1.2 mph /  1.9 km/h 3.5 mph /  5.6 km/h 84 % 0.00 in /  0 mm
01:25 65.3 °F /  18.5 °C 60.3 °F /  15.7 °C 29.86 in /  1011.1 hPa SW 0.9 mph /  1.4 km/h 4.0 mph /  6.4 km/h 84 % 0.00 in /  0 mm
01:30 65.3 °F /  18.5 °C 60.3 °F /  15.7 °C 29.86 in /  1011.1 hPa WSW 1.1 mph /  1.8 km/h 3.5 mph /  5.6 km/h 84 % 0.00 in /  0 mm
01:35 65.4 °F /  18.6 °C 60.4 °F /  15.8 °C 29.86 in /  1011.1 hPa WSW 1.9 mph /  3.1 km/h 3.5 mph /  5.6 km/h 84 % 0.00 in /  0 mm
01:40 65.4 °F /  18.6 °C 60.4 °F /  15.8 °C 29.86 in /  1011.1 hPa SSW 1.0 mph /  1.6 km/h 5.0 mph /  8 km/h 84 % 0.00 in /  0 mm
01:45 65.5 °F /  18.6 °C 60.5 °F /  15.8 °C 29.86 in /  1011.1 hPa SW 1.4 mph /  2.3 km/h 4.6 mph /  7.4 km/h 84 % 0.00 in /  0 mm
01:50 65.6 °F /  18.7 °C 60.6 °F /  15.9 °C 29.86 in /  1011.1 hPa WSW 0.1 mph /  0.2 km/h 1.2 mph /  1.9 km/h 84 % 0.00 in /  0 mm
01:55 65.7 °F /  18.7 °C 60.7 °F /  15.9 °C 29.85 in /  1010.7 hPa WSW 0.4 mph /  0.6 km/h 2.3 mph /  3.7 km/h 84 % 0.00 in /  0 mm
02:00 65.7 °F /  18.7 °C 60.4 °F /  15.8 °C 29.85 in /  1010.7 hPa SW 1.7 mph /  2.7 km/h 3.5 mph /  5.6 km/h 83 % 0.00 in /  0 mm
02:05 65.8 °F /  18.8 °C 60.5 °F /  15.8 °C 29.85 in /  1010.7 hPa SW 0.1 mph /  0.2 km/h 1.2 mph /  1.9 km/h 83 % 0.00 in /  0 mm
02:10 65.8 °F /  18.8 °C 60.5 °F /  15.8 °C 29.85 in /  1010.7 hPa WSW 0.6 mph /  1 km/h 1.2 mph /  1.9 km/h 83 % 0.00 in /  0 mm
02:15 65.8 °F /  18.8 °C 60.5 °F /  15.8 °C 29.85 in /  1010.7 hPa WSW 1.4 mph /  2.3 km/h 3.5 mph /  5.6 km/h 83 % 0.00 in /  0 mm
02:20 65.9 °F /  18.8 °C 60.6 °F /  15.9 °C 29.85 in /  1010.7 hPa WSW 1.1 mph /  1.8 km/h 4.0 mph /  6.4 km/h 83 % 0.00 in /  0 mm
02:25 65.9 °F /  18.8 °C 60.6 °F /  15.9 °C 29.85 in /  1010.7 hPa WSW 1.8 mph /  2.9 km/h 3.5 mph /  5.6 km/h 83 % 0.00 in /  0 mm
02:30 66.0 °F /  18.9 °C 60.7 °F /  15.9 °C 29.84 in /  1010.4 hPa WSW 0.9 mph /  1.4 km/h 3.5 mph /  5.6 km/h 83 % 0.00 in /  0 mm
02:35 66.0 °F /  18.9 °C 60.7 °F /  15.9 °C 29.84 in /  1010.4 hPa WSW 1.2 mph /  1.9 km/h 2.3 mph /  3.7 km/h 83 % 0.00 in /  0 mm
02:40 66.0 °F /  18.9 °C 60.7 °F /  15.9 °C 29.84 in /  1010.4 hPa WSW 0.1 mph /  0.2 km/h 1.2 mph /  1.9 km/h 83 % 0.00 in /  0 mm
02:45 66.0 °F /  18.9 °C 60.7 °F /  15.9 °C 29.84 in /  1010.4 hPa West 0.2 mph /  0.3 km/h 1.2 mph /  1.9 km/h 83 % 0.00 in /  0 mm
02:50 66.0 °F /  18.9 °C 60.7 °F /  15.9 °C 29.84 in /  1010.4 hPa Calm   1.2 mph /  1.9 km/h 83 % 0.00 in /  0 mm
02:55 66.0 °F /  18.9 °C 60.3 °F /  15.7 °C 29.84 in /  1010.4 hPa SW 0.7 mph /  1.1 km/h 3.5 mph /  5.6 km/h 82 % 0.00 in /  0 mm
03:00 65.9 °F /  18.8 °C 60.2 °F /  15.7 °C 29.84 in /  1010.4 hPa Calm   1.2 mph /  1.9 km/h 82 % 0.00 in /  0 mm
03:05 65.8 °F /  18.8 °C 60.2 °F /  15.7 °C 29.84 in /  1010.4 hPa SW 0.8 mph /  1.3 km/h 2.3 mph /  3.7 km/h 82 % 0.00 in /  0 mm
03:10 65.8 °F /  18.8 °C 60.5 °F /  15.8 °C 29.84 in /  1010.4 hPa Calm   1.0 mph /  1.6 km/h 83 % 0.00 in /  0 mm
03:16 65.7 °F /  18.7 °C 60.4 °F /  15.8 °C 29.84 in /  1010.4 hPa Calm   3.0 mph /  4.8 km/h 83 % 0.00 in /  0 mm
03:21 65.6 °F /  18.7 °C 60.3 °F /  15.7 °C 29.84 in /  1010.4 hPa SW 1.0 mph /  1.6 km/h 2.0 mph /  3.2 km/h 83 % 0.00 in /  0 mm
03:26 65.5 °F /  18.6 °C 60.2 °F /  15.7 °C 29.84 in /  1010.4 hPa Calm   3.0 mph /  4.8 km/h 83 % 0.00 in /  0 mm
03:31 65.4 °F /  18.6 °C 60.1 °F /  15.6 °C 29.84 in /  1010.4 hPa Calm   3.0 mph /  4.8 km/h 83 % 0.00 in /  0 mm
03:36 65.3 °F /  18.5 °C 60.3 °F /  15.7 °C 29.84 in /  1010.4 hPa West 0.5 mph /  0.8 km/h 3.5 mph /  5.6 km/h 84 % 0.00 in /  0 mm
03:41 65.2 °F /  18.4 °C 60.2 °F /  15.7 °C 29.84 in /  1010.4 hPa West 1.0 mph /  1.6 km/h 2.0 mph /  3.2 km/h 84 % 0.00 in /  0 mm
03:46 65.1 °F /  18.4 °C 60.1 °F /  15.6 °C 29.84 in /  1010.4 hPa SW 0.7 mph /  1.1 km/h 3.5 mph /  5.6 km/h 84 % 0.00 in /  0 mm
03:51 65.0 °F /  18.3 °C 60.1 °F /  15.6 °C 29.84 in /  1010.4 hPa WSW 1.0 mph /  1.6 km/h 4.0 mph /  6.4 km/h 84 % 0.00 in /  0 mm
03:56 65.0 °F /  18.3 °C 60.4 °F /  15.8 °C 29.84 in /  1010.4 hPa WSW 1.0 mph /  1.6 km/h 4.0 mph /  6.4 km/h 85 % 0.00 in /  0 mm
04:01 65.0 °F /  18.3 °C 60.4 °F /  15.8 °C 29.84 in /  1010.4 hPa WSW 0.5 mph /  0.8 km/h 3.5 mph /  5.6 km/h 85 % 0.00 in /  0 mm
04:06 64.9 °F /  18.3 °C 60.3 °F /  15.7 °C 29.85 in /  1010.7 hPa WSW 0.1 mph /  0.2 km/h 1.2 mph /  1.9 km/h 85 % 0.00 in /  0 mm
04:11 64.9 °F /  18.3 °C 60.3 °F /  15.7 °C 29.84 in /  1010.4 hPa Calm     85 % 0.00 in /  0 mm
04:16 64.8 °F /  18.2 °C 60.2 °F /  15.7 °C 29.84 in /  1010.4 hPa Calm     85 % 0.00 in /  0 mm
04:21 64.7 °F /  18.2 °C 60.1 °F /  15.6 °C 29.84 in /  1010.4 hPa Calm   1.2 mph /  1.9 km/h 85 % 0.00 in /  0 mm
04:26 64.7 °F /  18.2 °C 60.1 °F /  15.6 °C 29.85 in /  1010.7 hPa WSW 0.2 mph /  0.3 km/h 1.2 mph /  1.9 km/h 85 % 0.00 in /  0 mm
04:31 64.6 °F /  18.1 °C 60.0 °F /  15.6 °C 29.84 in /  1010.4 hPa Calm     85 % 0.00 in /  0 mm
04:36 64.5 °F /  18.1 °C 59.9 °F /  15.5 °C 29.84 in /  1010.4 hPa SW 0.4 mph /  0.6 km/h 2.3 mph /  3.7 km/h 85 % 0.00 in /  0 mm
04:41 64.4 °F /  18 °C 60.1 °F /  15.6 °C 29.84 in /  1010.4 hPa Calm     86 % 0.00 in /  0 mm
04:46 64.3 °F /  17.9 °C 60.0 °F /  15.6 °C 29.84 in /  1010.4 hPa SW 1.1 mph /  1.8 km/h 2.3 mph /  3.7 km/h 86 % 0.00 in /  0 mm
04:51 64.2 °F /  17.9 °C 59.9 °F /  15.5 °C 29.84 in /  1010.4 hPa WSW 0.7 mph /  1.1 km/h 3.5 mph /  5.6 km/h 86 % 0.00 in /  0 mm
04:56 64.1 °F /  17.8 °C 60.2 °F /  15.7 °C 29.84 in /  1010.4 hPa South 2.5 mph /  4 km/h 4.0 mph /  6.4 km/h 87 % 0.00 in /  0 mm
04:58 64.1 °F /  17.8 °C 60.2 °F /  15.7 °C 29.84 in /  1010.4 hPa WSW 2.2 mph /  3.5 km/h 6.9 mph /  11.1 km/h 87 % 0.00 in /  0 mm
05:03 64.1 °F /  17.8 °C 60.2 °F /  15.7 °C 29.84 in /  1010.4 hPa West 2.5 mph /  4 km/h 6.9 mph /  11.1 km/h 87 % 0.00 in /  0 mm
05:08 64.1 °F /  17.8 °C 60.5 °F /  15.8 °C 29.84 in /  1010.4 hPa WSW 1.8 mph /  2.9 km/h 3.5 mph /  5.6 km/h 88 % 0.00 in /  0 mm
05:13 64.1 °F /  17.8 °C 60.5 °F /  15.8 °C 29.84 in /  1010.4 hPa SW 0.9 mph /  1.4 km/h 2.3 mph /  3.7 km/h 88 % 0.00 in /  0 mm
05:18 64.1 °F /  17.8 °C 60.5 °F /  15.8 °C 29.84 in /  1010.4 hPa SSW 2.6 mph /  4.2 km/h 4.6 mph /  7.4 km/h 88 % 0.00 in /  0 mm
05:23 64.1 °F /  17.8 °C 60.5 °F /  15.8 °C 29.85 in /  1010.7 hPa West 2.5 mph /  4 km/h 4.6 mph /  7.4 km/h 88 % 0.00 in /  0 mm
05:28 64.1 °F /  17.8 °C 60.5 °F /  15.8 °C 29.85 in /  1010.7 hPa SW 1.6 mph /  2.6 km/h 3.5 mph /  5.6 km/h 88 % 0.00 in /  0 mm
05:33 64.2 °F /  17.9 °C 60.2 °F /  15.7 °C 29.84 in /  1010.4 hPa WSW 1.6 mph /  2.6 km/h 3.5 mph /  5.6 km/h 87 % 0.00 in /  0 mm
05:38 64.2 °F /  17.9 °C 60.2 °F /  15.7 °C 29.85 in /  1010.7 hPa SW 1.6 mph /  2.6 km/h 3.0 mph /  4.8 km/h 87 % 0.00 in /  0 mm
05:43 64.2 °F /  17.9 °C 60.2 °F /  15.7 °C 29.85 in /  1010.7 hPa SW 0.4 mph /  0.6 km/h 2.3 mph /  3.7 km/h 87 % 0.00 in /  0 mm
05:48 64.2 °F /  17.9 °C 60.2 °F /  15.7 °C 29.85 in /  1010.7 hPa SSW 0.1 mph /  0.2 km/h 3.5 mph /  5.6 km/h 87 % 0.00 in /  0 mm
05:53 64.1 °F /  17.8 °C 60.2 °F /  15.7 °C 29.85 in /  1010.7 hPa SW 0.7 mph /  1.1 km/h 3.5 mph /  5.6 km/h 87 % 0.00 in /  0 mm
05:58 64.1 °F /  17.8 °C 60.2 °F /  15.7 °C 29.85 in /  1010.7 hPa West 0.1 mph /  0.2 km/h 2.3 mph /  3.7 km/h 87 % 0.00 in /  0 mm
06:03 64.0 °F /  17.8 °C 60.1 °F /  15.6 °C 29.86 in /  1011.1 hPa Calm   2.3 mph /  3.7 km/h 87 % 0.00 in /  0 mm
06:08 64.0 °F /  17.8 °C 60.1 °F /  15.6 °C 29.86 in /  1011.1 hPa WSW 0.4 mph /  0.6 km/h 4.0 mph /  6.4 km/h 87 % 0.00 in /  0 mm
06:13 63.9 °F /  17.7 °C 60.0 °F /  15.6 °C 29.86 in /  1011.1 hPa Calm   1.2 mph /  1.9 km/h 87 % 0.00 in /  0 mm
06:18 63.9 °F /  17.7 °C 60.0 °F /  15.6 °C 29.86 in /  1011.1 hPa Calm     87 % 0.00 in /  0 mm
06:23 63.8 °F /  17.7 °C 59.9 °F /  15.5 °C 29.86 in /  1011.1 hPa WSW 0.1 mph /  0.2 km/h 2.3 mph /  3.7 km/h 87 % 0.00 in /  0 mm
06:28 63.8 °F /  17.7 °C 59.9 °F /  15.5 °C 29.86 in /  1011.1 hPa WSW 0.6 mph /  1 km/h 3.5 mph /  5.6 km/h 87 % 0.00 in /  0 mm
06:33 63.7 °F /  17.6 °C 59.8 °F /  15.4 °C 29.86 in /  1011.1 hPa WSW 0.3 mph /  0.5 km/h 3.5 mph /  5.6 km/h 87 % 0.00 in /  0 mm
06:39 63.6 °F /  17.6 °C 60.0 °F /  15.6 °C 29.86 in /  1011.1 hPa SW 1.5 mph /  2.4 km/h 3.5 mph /  5.6 km/h 88 % 0.00 in /  0 mm
06:44 63.6 °F /  17.6 °C 60.0 °F /  15.6 °C 29.87 in /  1011.4 hPa Calm   1.2 mph /  1.9 km/h 88 % 0.00 in /  0 mm
06:49 63.6 °F /  17.6 °C 60.0 °F /  15.6 °C 29.87 in /  1011.4 hPa SW 0.3 mph /  0.5 km/h 2.3 mph /  3.7 km/h 88 % 0.00 in /  0 mm
06:54 63.5 °F /  17.5 °C 59.9 °F /  15.5 °C 29.86 in /  1011.1 hPa SW 1.3 mph /  2.1 km/h 3.5 mph /  5.6 km/h 88 % 0.00 in /  0 mm
06:59 63.5 °F /  17.5 °C 60.2 °F /  15.7 °C 29.87 in /  1011.4 hPa SW 2.3 mph /  3.7 km/h 3.5 mph /  5.6 km/h 89 % 0.00 in /  0 mm
07:04 63.5 °F /  17.5 °C 60.2 °F /  15.7 °C 29.87 in /  1011.4 hPa SW 0.5 mph /  0.8 km/h 2.0 mph /  3.2 km/h 89 % 0.00 in /  0 mm
07:09 63.5 °F /  17.5 °C 60.2 °F /  15.7 °C 29.87 in /  1011.4 hPa SW 1.3 mph /  2.1 km/h 2.3 mph /  3.7 km/h 89 % 0.00 in /  0 mm
07:14 63.5 °F /  17.5 °C 60.2 °F /  15.7 °C 29.87 in /  1011.4 hPa SW 0.6 mph /  1 km/h 2.3 mph /  3.7 km/h 89 % 0.00 in /  0 mm
07:19 63.6 °F /  17.6 °C 60.3 °F /  15.7 °C 29.87 in /  1011.4 hPa SW 0.9 mph /  1.4 km/h 3.5 mph /  5.6 km/h 89 % 0.00 in /  0 mm
07:24 63.6 °F /  17.6 °C 60.3 °F /  15.7 °C 29.87 in /  1011.4 hPa SW 0.2 mph /  0.3 km/h 3.5 mph /  5.6 km/h 89 % 0.00 in /  0 mm
07:29 63.6 °F /  17.6 °C 60.3 °F /  15.7 °C 29.87 in /  1011.4 hPa Calm     89 % 0.00 in /  0 mm
07:34 63.7 °F /  17.6 °C 60.7 °F /  15.9 °C 29.87 in /  1011.4 hPa SW 1.9 mph /  3.1 km/h 3.5 mph /  5.6 km/h 90 % 0.00 in /  0 mm
07:39 63.8 °F /  17.7 °C 60.8 °F /  16 °C 29.87 in /  1011.4 hPa SW 0.5 mph /  0.8 km/h 2.3 mph /  3.7 km/h 90 % 0.00 in /  0 mm
07:44 63.9 °F /  17.7 °C 60.9 °F /  16.1 °C 29.87 in /  1011.4 hPa SW 0.7 mph /  1.1 km/h 2.3 mph /  3.7 km/h 90 % 0.00 in /  0 mm
07:49 64.0 °F /  17.8 °C 61.0 °F /  16.1 °C 29.88 in /  1011.7 hPa SW 0.9 mph /  1.4 km/h 2.3 mph /  3.7 km/h 90 % 0.00 in /  0 mm
07:54 64.2 °F /  17.9 °C 61.2 °F /  16.2 °C 29.87 in /  1011.4 hPa SW 0.8 mph /  1.3 km/h 2.3 mph /  3.7 km/h 90 % 0.00 in /  0 mm
07:59 64.4 °F /  18 °C 61.4 °F /  16.3 °C 29.87 in /  1011.4 hPa WSW 0.5 mph /  0.8 km/h 3.5 mph /  5.6 km/h 90 % 0.00 in /  0 mm
08:04 64.7 °F /  18.2 °C 61.7 °F /  16.5 °C 29.87 in /  1011.4 hPa West 4.1 mph /  6.6 km/h 8.1 mph /  13 km/h 90 % 0.00 in /  0 mm
08:09 65.0 °F /  18.3 °C 61.7 °F /  16.5 °C 29.87 in /  1011.4 hPa WSW 1.3 mph /  2.1 km/h 2.3 mph /  3.7 km/h 89 % 0.00 in /  0 mm
08:14 65.3 °F /  18.5 °C 62.0 °F /  16.7 °C 29.87 in /  1011.4 hPa WSW 0.2 mph /  0.3 km/h 3.5 mph /  5.6 km/h 89 % 0.00 in /  0 mm
08:19 65.6 °F /  18.7 °C 62.3 °F /  16.8 °C 29.87 in /  1011.4 hPa Calm     89 % 0.00 in /  0 mm
08:24 65.9 °F /  18.8 °C 62.6 °F /  17 °C 29.87 in /  1011.4 hPa West 2.8 mph /  4.5 km/h 4.6 mph /  7.4 km/h 89 % 0.00 in /  0 mm
08:29 66.2 °F /  19 °C 62.5 °F /  16.9 °C 29.87 in /  1011.4 hPa SSW 3.5 mph /  5.6 km/h 6.0 mph /  9.7 km/h 88 % 0.00 in /  0 mm
08:34 66.5 °F /  19.2 °C 62.8 °F /  17.1 °C 29.87 in /  1011.4 hPa WNW 3.2 mph /  5.1 km/h 5.8 mph /  9.3 km/h 88 % 0.00 in /  0 mm
08:39 66.8 °F /  19.3 °C 62.8 °F /  17.1 °C 29.87 in /  1011.4 hPa SW 1.7 mph /  2.7 km/h 4.6 mph /  7.4 km/h 87 % 0.00 in /  0 mm
08:44 67.1 °F /  19.5 °C 62.8 °F /  17.1 °C 29.87 in /  1011.4 hPa SW 2.3 mph /  3.7 km/h 3.0 mph /  4.8 km/h 86 % 0.00 in /  0 mm
08:49 67.5 °F /  19.7 °C 63.2 °F /  17.3 °C 29.87 in /  1011.4 hPa West 2.2 mph /  3.5 km/h 3.0 mph /  4.8 km/h 86 % 0.00 in /  0 mm
08:54 67.8 °F /  19.9 °C 63.1 °F /  17.3 °C 29.87 in /  1011.4 hPa WSW 0.8 mph /  1.3 km/h 4.6 mph /  7.4 km/h 85 % 0.00 in /  0 mm
08:59 68.1 °F /  20.1 °C 63.1 °F /  17.3 °C 29.87 in /  1011.4 hPa West 4.1 mph /  6.6 km/h 5.8 mph /  9.3 km/h 84 % 0.00 in /  0 mm
09:04 68.5 °F /  20.3 °C 63.1 °F /  17.3 °C 29.87 in /  1011.4 hPa WSW 6.2 mph /  10 km/h 9.2 mph /  14.8 km/h 83 % 0.00 in /  0 mm
09:09 68.8 °F /  20.4 °C 62.7 °F /  17.1 °C 29.87 in /  1011.4 hPa SW 4.9 mph /  7.9 km/h 8.0 mph /  12.9 km/h 81 % 0.00 in /  0 mm
09:14 69.1 °F /  20.6 °C 62.7 °F /  17.1 °C 29.87 in /  1011.4 hPa West 4.3 mph /  6.9 km/h 8.1 mph /  13 km/h 80 % 0.00 in /  0 mm
09:20 69.5 °F /  20.8 °C 63.1 °F /  17.3 °C 29.87 in /  1011.4 hPa West 3.7 mph /  6 km/h 6.0 mph /  9.7 km/h 80 % 0.00 in /  0 mm
09:25 69.8 °F /  21 °C 63.3 °F /  17.4 °C 29.87 in /  1011.4 hPa West 3.6 mph /  5.8 km/h 9.2 mph /  14.8 km/h 80 % 0.00 in /  0 mm
09:30 70.1 °F /  21.2 °C 62.9 °F /  17.2 °C 29.87 in /  1011.4 hPa WSW 1.7 mph /  2.7 km/h 8.1 mph /  13 km/h 78 % 0.00 in /  0 mm
09:35 70.4 °F /  21.3 °C 62.8 °F /  17.1 °C 29.86 in /  1011.1 hPa West 2.9 mph /  4.7 km/h 6.9 mph /  11.1 km/h 77 % 0.00 in /  0 mm
09:40 70.8 °F /  21.6 °C 62.9 °F /  17.2 °C 29.86 in /  1011.1 hPa West 3.9 mph /  6.3 km/h 9.2 mph /  14.8 km/h 76 % 0.00 in /  0 mm
09:45 71.3 °F /  21.8 °C 63.7 °F /  17.6 °C 29.86 in /  1011.1 hPa WSW 3.2 mph /  5.1 km/h 6.9 mph /  11.1 km/h 77 % 0.00 in /  0 mm
09:50 71.9 °F /  22.2 °C 63.9 °F /  17.7 °C 29.86 in /  1011.1 hPa WSW 3.0 mph /  4.8 km/h 5.8 mph /  9.3 km/h 76 % 0.00 in /  0 mm
09:55 72.6 °F /  22.6 °C 63.8 °F /  17.7 °C 29.86 in /  1011.1 hPa NW 4.5 mph /  7.2 km/h 10.4 mph /  16.7 km/h 74 % 0.00 in /  0 mm
10:00 73.2 °F /  22.9 °C 63.6 °F /  17.6 °C 29.86 in /  1011.1 hPa SW 5.8 mph /  9.3 km/h 10.4 mph /  16.7 km/h 72 % 0.00 in /  0 mm
10:05 73.6 °F /  23.1 °C 64.0 °F /  17.8 °C 29.86 in /  1011.1 hPa SW 5.6 mph /  9 km/h 10.0 mph /  16.1 km/h 72 % 0.00 in /  0 mm
10:10 73.9 °F /  23.3 °C 63.9 °F /  17.7 °C 29.86 in /  1011.1 hPa WNW 3.9 mph /  6.3 km/h 5.8 mph /  9.3 km/h 71 % 0.00 in /  0 mm
10:15 74.0 °F /  23.3 °C 64.0 °F /  17.8 °C 29.86 in /  1011.1 hPa SSW 4.7 mph /  7.6 km/h 9.2 mph /  14.8 km/h 71 % 0.00 in /  0 mm
10:20 74.0 °F /  23.3 °C 64.0 °F /  17.8 °C 29.86 in /  1011.1 hPa WSW 5.3 mph /  8.5 km/h 9.0 mph /  14.5 km/h 71 % 0.00 in /  0 mm
10:25 73.9 °F /  23.3 °C 63.5 °F /  17.5 °C 29.86 in /  1011.1 hPa SW 5.7 mph /  9.2 km/h 9.2 mph /  14.8 km/h 70 % 0.00 in /  0 mm
10:30 73.9 °F /  23.3 °C 63.9 °F /  17.7 °C 29.86 in /  1011.1 hPa West 2.5 mph /  4 km/h 6.9 mph /  11.1 km/h 71 % 0.00 in /  0 mm
10:35 74.0 °F /  23.3 °C 64.0 °F /  17.8 °C 29.85 in /  1010.7 hPa SW 2.7 mph /  4.3 km/h 7.0 mph /  11.3 km/h 71 % 0.00 in /  0 mm
10:40 74.1 °F /  23.4 °C 64.1 °F /  17.8 °C 29.86 in /  1011.1 hPa WSW 3.3 mph /  5.3 km/h 10.4 mph /  16.7 km/h 71 % 0.00 in /  0 mm
10:45 74.2 °F /  23.4 °C 64.6 °F /  18.1 °C 29.86 in /  1011.1 hPa WNW 2.5 mph /  4 km/h 5.8 mph /  9.3 km/h 72 % 0.00 in /  0 mm
10:50 74.4 °F /  23.6 °C 64.8 °F /  18.2 °C 29.86 in /  1011.1 hPa WSW 5.8 mph /  9.3 km/h 8.1 mph /  13 km/h 72 % 0.00 in /  0 mm
10:55 74.8 °F /  23.8 °C 64.8 °F /  18.2 °C 29.86 in /  1011.1 hPa West 4.9 mph /  7.9 km/h 8.0 mph /  12.9 km/h 71 % 0.00 in /  0 mm
11:00 75.4 °F /  24.1 °C 65.3 °F /  18.5 °C 29.85 in /  1010.7 hPa West 3.5 mph /  5.6 km/h 8.1 mph /  13 km/h 71 % 0.00 in /  0 mm
11:05 76.0 °F /  24.4 °C 65.1 °F /  18.4 °C 29.86 in /  1011.1 hPa West 3.8 mph /  6.1 km/h 8.1 mph /  13 km/h 69 % 0.00 in /  0 mm
11:10 76.7 °F /  24.8 °C 66.2 °F /  19 °C 29.85 in /  1010.7 hPa SW 6.6 mph /  10.6 km/h 9.2 mph /  14.8 km/h 70 % 0.00 in /  0 mm
11:16 77.4 °F /  25.2 °C 66.0 °F /  18.9 °C 29.85 in /  1010.7 hPa WSW 6.0 mph /  9.7 km/h 12.0 mph /  19.3 km/h 68 % 0.00 in /  0 mm
11:21 78.0 °F /  25.6 °C 66.6 °F /  19.2 °C 29.85 in /  1010.7 hPa WSW 2.0 mph /  3.2 km/h 8.0 mph /  12.9 km/h 68 % 0.00 in /  0 mm
11:26 78.7 °F /  25.9 °C 65.5 °F /  18.6 °C 29.85 in /  1010.7 hPa WSW 5.5 mph /  8.9 km/h 13.8 mph /  22.2 km/h 64 % 0.00 in /  0 mm
11:31 79.2 °F /  26.2 °C 66.0 °F /  18.9 °C 29.85 in /  1010.7 hPa WSW 6.0 mph /  9.7 km/h 12.0 mph /  19.3 km/h 64 % 0.00 in /  0 mm
11:36 79.6 °F /  26.4 °C 65.9 °F /  18.8 °C 29.85 in /  1010.7 hPa WSW 5.0 mph /  8 km/h 10.0 mph /  16.1 km/h 63 % 0.00 in /  0 mm
11:41 80.0 °F /  26.7 °C 66.3 °F /  19.1 °C 29.85 in /  1010.7 hPa WSW 6.0 mph /  9.7 km/h 10.0 mph /  16.1 km/h 63 % 0.00 in /  0 mm
11:46 80.5 °F /  26.9 °C 66.7 °F /  19.3 °C 29.84 in /  1010.4 hPa WSW 4.6 mph /  7.4 km/h 8.1 mph /  13 km/h 63 % 0.00 in /  0 mm
11:51 80.9 °F /  27.2 °C 66.7 °F /  19.3 °C 29.84 in /  1010.4 hPa WSW 2.7 mph /  4.3 km/h 4.6 mph /  7.4 km/h 62 % 0.00 in /  0 mm
11:56 81.4 °F /  27.4 °C 68.1 °F /  20.1 °C 29.83 in /  1010 hPa WSW 4.9 mph /  7.9 km/h 10.4 mph /  16.7 km/h 64 % 0.00 in /  0 mm
12:01 81.9 °F /  27.7 °C 68.1 °F /  20.1 °C 29.83 in /  1010 hPa West 4.6 mph /  7.4 km/h 8.1 mph /  13 km/h 63 % 0.00 in /  0 mm
12:06 82.2 °F /  27.9 °C 66.4 °F /  19.1 °C 29.83 in /  1010 hPa WNW 5.3 mph /  8.5 km/h 10.4 mph /  16.7 km/h 59 % 0.00 in /  0 mm
12:11 82.5 °F /  28.1 °C 67.7 °F /  19.8 °C 29.83 in /  1010 hPa SW 4.8 mph /  7.7 km/h 7.0 mph /  11.3 km/h 61 % 0.00 in /  0 mm
12:16 82.8 °F /  28.2 °C 68.9 °F /  20.5 °C 29.83 in /  1010 hPa SW 6.1 mph /  9.8 km/h 11.5 mph /  18.5 km/h 63 % 0.00 in /  0 mm
12:21 83.1 °F /  28.4 °C 67.3 °F /  19.6 °C 29.83 in /  1010 hPa SW 2.4 mph /  3.9 km/h 9.0 mph /  14.5 km/h 59 % 0.00 in /  0 mm
12:26 83.4 °F /  28.6 °C 66.6 °F /  19.2 °C 29.82 in /  1009.7 hPa SSW 0.5 mph /  0.8 km/h 2.3 mph /  3.7 km/h 57 % 0.00 in /  0 mm
12:31 83.7 °F /  28.7 °C 66.8 °F /  19.3 °C 29.83 in /  1010 hPa WSW 4.6 mph /  7.4 km/h 6.9 mph /  11.1 km/h 57 % 0.00 in /  0 mm
12:36 83.8 °F /  28.8 °C 65.9 °F /  18.8 °C 29.83 in /  1010 hPa West 3.1 mph /  5 km/h 7.0 mph /  11.3 km/h 55 % 0.00 in /  0 mm
12:41 83.8 °F /  28.8 °C 66.4 °F /  19.1 °C 29.82 in /  1009.7 hPa SSW 4.1 mph /  6.6 km/h 10.4 mph /  16.7 km/h 56 % 0.00 in /  0 mm
12:46 83.8 °F /  28.8 °C 66.4 °F /  19.1 °C 29.82 in /  1009.7 hPa SW 3.3 mph /  5.3 km/h 5.8 mph /  9.3 km/h 56 % 0.00 in /  0 mm
12:51 83.9 °F /  28.8 °C 66.5 °F /  19.2 °C 29.82 in /  1009.7 hPa WSW 5.7 mph /  9.2 km/h 8.1 mph /  13 km/h 56 % 0.00 in /  0 mm
12:56 84.0 °F /  28.9 °C 66.6 °F /  19.2 °C 29.82 in /  1009.7 hPa SSW 5.2 mph /  8.4 km/h 8.1 mph /  13 km/h 56 % 0.00 in /  0 mm
13:01 84.1 °F /  28.9 °C 67.2 °F /  19.6 °C 29.82 in /  1009.7 hPa SW 2.7 mph /  4.3 km/h 6.9 mph /  11.1 km/h 57 % 0.00 in /  0 mm
13:06 84.2 °F /  29 °C 66.3 °F /  19.1 °C 29.82 in /  1009.7 hPa South 3.6 mph /  5.8 km/h 8.1 mph /  13 km/h 55 % 0.00 in /  0 mm
13:11 84.4 °F /  29.1 °C 67.0 °F /  19.4 °C 29.83 in /  1010 hPa WNW 2.3 mph /  3.7 km/h 4.6 mph /  7.4 km/h 56 % 0.00 in /  0 mm
13:16 84.7 °F /  29.3 °C 68.8 °F /  20.4 °C 29.83 in /  1010 hPa West 0.5 mph /  0.8 km/h 3.5 mph /  5.6 km/h 59 % 0.00 in /  0 mm
13:21 85.0 °F /  29.4 °C 68.1 °F /  20.1 °C 29.83 in /  1010 hPa NW 3.1 mph /  5 km/h 6.9 mph /  11.1 km/h 57 % 0.00 in /  0 mm
13:27 85.1 °F /  29.5 °C 66.6 °F /  19.2 °C 29.83 in /  1010 hPa West 1.0 mph /  1.6 km/h 3.5 mph /  5.6 km/h 54 % 0.00 in /  0 mm
13:32 85.2 °F /  29.6 °C 67.2 °F /  19.6 °C 29.82 in /  1009.7 hPa WNW 3.8 mph /  6.1 km/h 5.8 mph /  9.3 km/h 55 % 0.00 in /  0 mm
13:37 85.2 °F /  29.6 °C 66.7 °F /  19.3 °C 29.82 in /  1009.7 hPa NW 2.1 mph /  3.4 km/h 8.1 mph /  13 km/h 54 % 0.00 in /  0 mm
13:42 85.2 °F /  29.6 °C 67.2 °F /  19.6 °C 29.82 in /  1009.7 hPa WNW 1.9 mph /  3.1 km/h 4.6 mph /  7.4 km/h 55 % 0.00 in /  0 mm
13:47 85.3 °F /  29.6 °C 65.7 °F /  18.7 °C 29.82 in /  1009.7 hPa West 6.6 mph /  10.6 km/h 11.5 mph /  18.5 km/h 52 % 0.00 in /  0 mm
13:52 85.3 °F /  29.6 °C 65.7 °F /  18.7 °C 29.82 in /  1009.7 hPa NW 2.9 mph /  4.7 km/h 11.5 mph /  18.5 km/h 52 % 0.00 in /  0 mm
13:57 85.3 °F /  29.6 °C 65.7 °F /  18.7 °C 29.83 in /  1010 hPa WNW 4.7 mph /  7.6 km/h 8.1 mph /  13 km/h 52 % 0.00 in /  0 mm
14:02 85.4 °F /  29.7 °C 66.3 °F /  19.1 °C 29.82 in /  1009.7 hPa WNW 1.8 mph /  2.9 km/h 8.1 mph /  13 km/h 53 % 0.00 in /  0 mm
14:07 85.5 °F /  29.7 °C 64.7 °F /  18.2 °C 29.82 in /  1009.7 hPa NW 8.3 mph /  13.4 km/h 11.5 mph /  18.5 km/h 50 % 0.00 in /  0 mm
14:12 85.2 °F /  29.6 °C 64.5 °F /  18.1 °C 29.82 in /  1009.7 hPa WSW 2.5 mph /  4 km/h 8.1 mph /  13 km/h 50 % 0.00 in /  0 mm
14:17 85.0 °F /  29.4 °C 66.0 °F /  18.9 °C 29.82 in /  1009.7 hPa WNW 2.2 mph /  3.5 km/h 4.0 mph /  6.4 km/h 53 % 0.00 in /  0 mm
14:22 84.6 °F /  29.2 °C 64.5 °F /  18.1 °C 29.82 in /  1009.7 hPa WSW 4.2 mph /  6.8 km/h 8.0 mph /  12.9 km/h 51 % 0.00 in /  0 mm
14:27 84.1 °F /  28.9 °C 64.6 °F /  18.1 °C 29.82 in /  1009.7 hPa West 4.2 mph /  6.8 km/h 9.0 mph /  14.5 km/h 52 % 0.00 in /  0 mm
14:32 83.6 °F /  28.7 °C 64.1 °F /  17.8 °C 29.82 in /  1009.7 hPa West 3.9 mph /  6.3 km/h 6.9 mph /  11.1 km/h 52 % 0.00 in /  0 mm
14:37 83.0 °F /  28.3 °C 64.6 °F /  18.1 °C 29.82 in /  1009.7 hPa WNW 5.0 mph /  8 km/h 6.0 mph /  9.7 km/h 54 % 0.00 in /  0 mm
14:42 82.2 °F /  27.9 °C 63.9 °F /  17.7 °C 29.82 in /  1009.7 hPa WNW 3.2 mph /  5.1 km/h 11.5 mph /  18.5 km/h 54 % 0.00 in /  0 mm
14:47 81.6 °F /  27.6 °C 64.4 °F /  18 °C 29.82 in /  1009.7 hPa NW 4.2 mph /  6.8 km/h 9.2 mph /  14.8 km/h 56 % 0.00 in /  0 mm
14:52 81.0 °F /  27.2 °C 64.8 °F /  18.2 °C 29.82 in /  1009.7 hPa NW 1.1 mph /  1.8 km/h 6.9 mph /  11.1 km/h 58 % 0.00 in /  0 mm
14:57 80.7 °F /  27.1 °C 65.0 °F /  18.3 °C 29.82 in /  1009.7 hPa NW 2.6 mph /  4.2 km/h 5.0 mph /  8 km/h 59 % 0.00 in /  0 mm
15:02 80.5 °F /  26.9 °C 65.8 °F /  18.8 °C 29.81 in /  1009.4 hPa WNW 2.9 mph /  4.7 km/h 8.1 mph /  13 km/h 61 % 0.00 in /  0 mm
15:07 80.4 °F /  26.9 °C 67.1 °F /  19.5 °C 29.82 in /  1009.7 hPa NW 1.7 mph /  2.7 km/h 6.0 mph /  9.7 km/h 64 % 0.00 in /  0 mm
15:12 80.3 °F /  26.8 °C 66.6 °F /  19.2 °C 29.82 in /  1009.7 hPa WNW 4.3 mph /  6.9 km/h 4.3 mph /  6.9 km/h 63 % 0.00 in /  0 mm
15:17 80.3 °F /  26.8 °C 66.1 °F /  18.9 °C 29.81 in /  1009.4 hPa NW 3.7 mph /  6 km/h 8.1 mph /  13 km/h 62 % 0.00 in /  0 mm
15:22 80.3 °F /  26.8 °C 66.6 °F /  19.2 °C 29.82 in /  1009.7 hPa WNW 5.7 mph /  9.2 km/h 8.0 mph /  12.9 km/h 63 % 0.00 in /  0 mm
15:27 80.5 °F /  26.9 °C 66.7 °F /  19.3 °C 29.82 in /  1009.7 hPa West 2.9 mph /  4.7 km/h 6.9 mph /  11.1 km/h 63 % 0.00 in /  0 mm
15:32 80.5 °F /  26.9 °C 66.3 °F /  19.1 °C 29.82 in /  1009.7 hPa West 2.9 mph /  4.7 km/h 6.9 mph /  11.1 km/h 62 % 0.00 in /  0 mm
15:37 80.5 °F /  26.9 °C 65.3 °F /  18.5 °C 29.82 in /  1009.7 hPa West 3.4 mph /  5.5 km/h 6.9 mph /  11.1 km/h 60 % 0.00 in /  0 mm
15:42 80.5 °F /  26.9 °C 65.3 °F /  18.5 °C 29.82 in /  1009.7 hPa West 2.6 mph /  4.2 km/h 8.1 mph /  13 km/h 60 % 0.00 in /  0 mm
15:47 80.3 °F /  26.8 °C 64.7 °F /  18.2 °C 29.82 in /  1009.7 hPa WNW 4.9 mph /  7.9 km/h 9.2 mph /  14.8 km/h 59 % 0.00 in /  0 mm
15:52 80.1 °F /  26.7 °C 64.5 °F /  18.1 °C 29.82 in /  1009.7 hPa West 4.2 mph /  6.8 km/h 11.5 mph /  18.5 km/h 59 % 0.00 in /  0 mm
15:57 79.8 °F /  26.6 °C 65.2 °F /  18.4 °C 29.82 in /  1009.7 hPa NW 6.6 mph /  10.6 km/h 8.1 mph /  13 km/h 61 % 0.00 in /  0 mm
16:02 79.5 °F /  26.4 °C 65.8 °F /  18.8 °C 29.82 in /  1009.7 hPa NW 3.5 mph /  5.6 km/h 8.1 mph /  13 km/h 63 % 0.00 in /  0 mm
16:07 79.1 °F /  26.2 °C 65.9 °F /  18.8 °C 29.82 in /  1009.7 hPa NNW 0.7 mph /  1.1 km/h 3.5 mph /  5.6 km/h 64 % 0.00 in /  0 mm
16:12 78.9 °F /  26.1 °C 65.7 °F /  18.7 °C 29.82 in /  1009.7 hPa WNW 1.3 mph /  2.1 km/h 4.6 mph /  7.4 km/h 64 % 0.00 in /  0 mm
16:17 78.4 °F /  25.8 °C 64.8 °F /  18.2 °C 29.82 in /  1009.7 hPa WNW 2.5 mph /  4 km/h 4.6 mph /  7.4 km/h 63 % 0.00 in /  0 mm
16:22 78.2 °F /  25.7 °C 65.0 °F /  18.3 °C 29.83 in /  1010 hPa NW 3.8 mph /  6.1 km/h 6.9 mph /  11.1 km/h 64 % 0.00 in /  0 mm
16:27 77.8 °F /  25.4 °C 64.2 °F /  17.9 °C 29.82 in /  1009.7 hPa NW 4.4 mph /  7.1 km/h 8.1 mph /  13 km/h 63 % 0.00 in /  0 mm
16:32 77.6 °F /  25.3 °C 64.9 °F /  18.3 °C 29.82 in /  1009.7 hPa WNW 1.8 mph /  2.9 km/h 4.0 mph /  6.4 km/h 65 % 0.00 in /  0 mm
16:38 77.4 °F /  25.2 °C 65.1 °F /  18.4 °C 29.83 in /  1010 hPa WSW 2.6 mph /  4.2 km/h 4.0 mph /  6.4 km/h 66 % 0.00 in /  0 mm
16:43 77.3 °F /  25.2 °C 65.5 °F /  18.6 °C 29.83 in /  1010 hPa NNW 2.4 mph /  3.9 km/h 6.0 mph /  9.7 km/h 67 % 0.00 in /  0 mm
16:48 77.0 °F /  25 °C 65.2 °F /  18.4 °C 29.83 in /  1010 hPa NNW 0.9 mph /  1.4 km/h 6.9 mph /  11.1 km/h 67 % 0.00 in /  0 mm
16:53 76.8 °F /  24.9 °C 65.4 °F /  18.6 °C 29.83 in /  1010 hPa WNW 1.4 mph /  2.3 km/h 3.5 mph /  5.6 km/h 68 % 0.00 in /  0 mm
16:58 76.6 °F /  24.8 °C 64.4 °F /  18 °C 29.83 in /  1010 hPa NNW 1.3 mph /  2.1 km/h 3.5 mph /  5.6 km/h 66 % 0.00 in /  0 mm
17:03 76.5 °F /  24.7 °C 64.7 °F /  18.2 °C 29.83 in /  1010 hPa West 2.2 mph /  3.5 km/h 4.6 mph /  7.4 km/h 67 % 0.00 in /  0 mm
17:08 76.4 °F /  24.7 °C 65.1 °F /  18.4 °C 29.83 in /  1010 hPa WNW 3.3 mph /  5.3 km/h 4.6 mph /  7.4 km/h 68 % 0.00 in /  0 mm
17:13 76.4 °F /  24.7 °C 65.5 °F /  18.6 °C 29.83 in /  1010 hPa West 4.3 mph /  6.9 km/h 6.0 mph /  9.7 km/h 69 % 0.00 in /  0 mm
17:18 76.6 °F /  24.8 °C 65.7 °F /  18.7 °C 29.83 in /  1010 hPa WNW 0.6 mph /  1 km/h 3.5 mph /  5.6 km/h 69 % 0.00 in /  0 mm
17:23 76.7 °F /  24.8 °C 66.2 °F /  19 °C 29.83 in /  1010 hPa NW 1.2 mph /  1.9 km/h 3.5 mph /  5.6 km/h 70 % 0.00 in /  0 mm
17:28 76.7 °F /  24.8 °C 65.8 °F /  18.8 °C 29.83 in /  1010 hPa NW 1.5 mph /  2.4 km/h 4.6 mph /  7.4 km/h 69 % 0.00 in /  0 mm
17:33 76.7 °F /  24.8 °C 65.3 °F /  18.5 °C 29.83 in /  1010 hPa NNW 3.5 mph /  5.6 km/h 5.8 mph /  9.3 km/h 68 % 0.00 in /  0 mm
17:38 76.7 °F /  24.8 °C 65.3 °F /  18.5 °C 29.83 in /  1010 hPa North 5.7 mph /  9.2 km/h 9.2 mph /  14.8 km/h 68 % 0.00 in /  0 mm
17:43 76.6 °F /  24.8 °C 65.7 °F /  18.7 °C 29.83 in /  1010 hPa North 1.9 mph /  3.1 km/h 4.0 mph /  6.4 km/h 69 % 0.00 in /  0 mm
17:48 76.3 °F /  24.6 °C 65.4 °F /  18.6 °C 29.84 in /  1010.4 hPa NNE 2.8 mph /  4.5 km/h 5.8 mph /  9.3 km/h 69 % 0.00 in /  0 mm
17:53 76.0 °F /  24.4 °C 65.1 °F /  18.4 °C 29.84 in /  1010.4 hPa NNE 3.5 mph /  5.6 km/h 4.6 mph /  7.4 km/h 69 % 0.00 in /  0 mm
17:58 75.4 °F /  24.1 °C 64.5 °F /  18.1 °C 29.84 in /  1010.4 hPa NNE 3.9 mph /  6.3 km/h 6.0 mph /  9.7 km/h 69 % 0.00 in /  0 mm
18:03 75.1 °F /  23.9 °C 64.6 °F /  18.1 °C 29.84 in /  1010.4 hPa NNE 1.9 mph /  3.1 km/h 4.6 mph /  7.4 km/h 70 % 0.00 in /  0 mm
18:08 74.8 °F /  23.8 °C 63.9 °F /  17.7 °C 29.84 in /  1010.4 hPa North 4.4 mph /  7.1 km/h 5.0 mph /  8 km/h 69 % 0.00 in /  0 mm
18:13 74.5 °F /  23.6 °C 64.1 °F /  17.8 °C 29.84 in /  1010.4 hPa NNW 4.1 mph /  6.6 km/h 6.0 mph /  9.7 km/h 70 % 0.00 in /  0 mm
18:18 74.2 °F /  23.4 °C 63.8 °F /  17.7 °C 29.84 in /  1010.4 hPa NNE 2.9 mph /  4.7 km/h 6.9 mph /  11.1 km/h 70 % 0.00 in /  0 mm
18:23 74.0 °F /  23.3 °C 63.6 °F /  17.6 °C 29.84 in /  1010.4 hPa NW 0.9 mph /  1.4 km/h 4.6 mph /  7.4 km/h 70 % 0.00 in /  0 mm
18:28 73.8 °F /  23.2 °C 63.8 °F /  17.7 °C 29.84 in /  1010.4 hPa NNE 3.2 mph /  5.1 km/h 5.8 mph /  9.3 km/h 71 % 0.00 in /  0 mm
18:33 73.6 °F /  23.1 °C 64.0 °F /  17.8 °C 29.84 in /  1010.4 hPa SSE 0.5 mph /  0.8 km/h 3.5 mph /  5.6 km/h 72 % 0.00 in /  0 mm
18:38 73.5 °F /  23.1 °C 63.5 °F /  17.5 °C 29.84 in /  1010.4 hPa NW 2.2 mph /  3.5 km/h 4.6 mph /  7.4 km/h 71 % 0.00 in /  0 mm
18:43 73.3 °F /  22.9 °C 62.9 °F /  17.2 °C 29.84 in /  1010.4 hPa NNW 1.7 mph /  2.7 km/h 3.5 mph /  5.6 km/h 70 % 0.00 in /  0 mm
18:48 73.1 °F /  22.8 °C 63.1 °F /  17.3 °C 29.85 in /  1010.7 hPa NW 0.7 mph /  1.1 km/h 2.3 mph /  3.7 km/h 71 % 0.00 in /  0 mm
18:53 73.0 °F /  22.8 °C 63.0 °F /  17.2 °C 29.85 in /  1010.7 hPa NW 2.6 mph /  4.2 km/h 6.9 mph /  11.1 km/h 71 % 0.00 in /  0 mm
18:58 72.8 °F /  22.7 °C 62.4 °F /  16.9 °C 29.85 in /  1010.7 hPa NNE 2.2 mph /  3.5 km/h 3.5 mph /  5.6 km/h 70 % 0.00 in /  0 mm
19:04 72.5 °F /  22.5 °C 62.6 °F /  17 °C 29.85 in /  1010.7 hPa ENE 1.2 mph /  1.9 km/h 3.5 mph /  5.6 km/h 71 % 0.00 in /  0 mm
19:09 72.4 °F /  22.4 °C 62.5 °F /  16.9 °C 29.85 in /  1010.7 hPa NNE 2.8 mph /  4.5 km/h 5.0 mph /  8 km/h 71 % 0.00 in /  0 mm
19:14 72.2 °F /  22.3 °C 62.3 °F /  16.8 °C 29.85 in /  1010.7 hPa North 0.8 mph /  1.3 km/h 2.3 mph /  3.7 km/h 71 % 0.00 in /  0 mm
19:19 72.0 °F /  22.2 °C 62.1 °F /  16.7 °C 29.86 in /  1011.1 hPa North 1.7 mph /  2.7 km/h 3.5 mph /  5.6 km/h 71 % 0.00 in /  0 mm
19:24 71.9 °F /  22.2 °C 62.0 °F /  16.7 °C 29.86 in /  1011.1 hPa Calm   1.2 mph /  1.9 km/h 71 % 0.00 in /  0 mm
19:29 71.8 °F /  22.1 °C 61.9 °F /  16.6 °C 29.86 in /  1011.1 hPa NNW 0.3 mph /  0.5 km/h 2.3 mph /  3.7 km/h 71 % 0.00 in /  0 mm
19:31 71.8 °F /  22.1 °C 62.3 °F /  16.8 °C 29.86 in /  1011.1 hPa NW 0.6 mph /  1 km/h 4.6 mph /  7.4 km/h 72 % 0.00 in /  0 mm
19:36 71.7 °F /  22.1 °C 61.8 °F /  16.6 °C 29.86 in /  1011.1 hPa North 2.1 mph /  3.4 km/h 4.6 mph /  7.4 km/h 71 % 0.00 in /  0 mm
19:41 71.6 °F /  22 °C 61.7 °F /  16.5 °C 29.86 in /  1011.1 hPa WNW 1.9 mph /  3.1 km/h 10.4 mph /  16.7 km/h 71 % 0.00 in /  0 mm
19:46 71.4 °F /  21.9 °C 61.1 °F /  16.2 °C 29.87 in /  1011.4 hPa North 2.5 mph /  4 km/h 6.0 mph /  9.7 km/h 70 % 0.00 in /  0 mm
19:56 71.0 °F /  21.7 °C 58.2 °F /  14.6 °C 29.87 in /  1011.4 hPa NNE 1.1 mph /  1.8 km/h 4.6 mph /  7.4 km/h 64 % 0.00 in /  0 mm
20:06 70.8 °F /  21.6 °C 56.7 °F /  13.7 °C 29.87 in /  1011.4 hPa NNW 2.1 mph /  3.4 km/h 3.5 mph /  5.6 km/h 61 % 0.00 in /  0 mm
20:11 70.8 °F /  21.6 °C 56.7 °F /  13.7 °C 29.87 in /  1011.4 hPa NW 2.0 mph /  3.2 km/h 3.5 mph /  5.6 km/h 61 % 0.00 in /  0 mm
20:16 70.7 °F /  21.5 °C 56.6 °F /  13.7 °C 29.88 in /  1011.7 hPa North 2.9 mph /  4.7 km/h 5.8 mph /  9.3 km/h 61 % 0.00 in /  0 mm
20:21 70.6 °F /  21.4 °C 56.5 °F /  13.6 °C 29.88 in /  1011.7 hPa NNE 1.0 mph /  1.6 km/h 3.0 mph /  4.8 km/h 61 % 0.00 in /  0 mm
20:26 70.5 °F /  21.4 °C 56.4 °F /  13.6 °C 29.88 in /  1011.7 hPa NNW 2.5 mph /  4 km/h 6.9 mph /  11.1 km/h 61 % 0.00 in /  0 mm
20:31 70.4 °F /  21.3 °C 56.3 °F /  13.5 °C 29.88 in /  1011.7 hPa NNE 0.3 mph /  0.5 km/h 1.2 mph /  1.9 km/h 61 % 0.00 in /  0 mm
20:36 70.4 °F /  21.3 °C 56.8 °F /  13.8 °C 29.89 in /  1012.1 hPa Calm     62 % 0.00 in /  0 mm
20:41 70.3 °F /  21.3 °C 57.1 °F /  13.9 °C 29.89 in /  1012.1 hPa NNW 1.9 mph /  3.1 km/h 5.8 mph /  9.3 km/h 63 % 0.00 in /  0 mm
20:46 70.2 °F /  21.2 °C 57.4 °F /  14.1 °C 29.89 in /  1012.1 hPa NW 0.3 mph /  0.5 km/h 3.5 mph /  5.6 km/h 64 % 0.00 in /  0 mm
20:51 70.1 °F /  21.2 °C 57.8 °F /  14.3 °C 29.89 in /  1012.1 hPa North 0.4 mph /  0.6 km/h 2.3 mph /  3.7 km/h 65 % 0.00 in /  0 mm
20:56 69.9 °F /  21.1 °C 57.6 °F /  14.2 °C 29.88 in /  1011.7 hPa Calm   1.2 mph /  1.9 km/h 65 % 0.00 in /  0 mm
21:01 69.9 °F /  21.1 °C 57.6 °F /  14.2 °C 29.88 in /  1011.7 hPa North 0.3 mph /  0.5 km/h 2.3 mph /  3.7 km/h 65 % 0.00 in /  0 mm
21:02 69.8 °F /  21 °C 57.5 °F /  14.2 °C 29.88 in /  1011.7 hPa Calm   1.2 mph /  1.9 km/h 65 % 0.00 in /  0 mm
21:07 69.7 °F /  20.9 °C 57.4 °F /  14.1 °C 29.89 in /  1012.1 hPa Calm     65 % 0.00 in /  0 mm
21:12 69.6 °F /  20.9 °C 57.3 °F /  14.1 °C 29.89 in /  1012.1 hPa Calm   3.5 mph /  5.6 km/h 65 % 0.00 in /  0 mm
21:17 69.5 °F /  20.8 °C 56.8 °F /  13.8 °C 29.89 in /  1012.1 hPa North 0.1 mph /  0.2 km/h 1.0 mph /  1.6 km/h 64 % 0.00 in /  0 mm
21:22 69.3 °F /  20.7 °C 57.0 °F /  13.9 °C 29.89 in /  1012.1 hPa NW 1.1 mph /  1.8 km/h 4.6 mph /  7.4 km/h 65 % 0.00 in /  0 mm
21:27 69.2 °F /  20.7 °C 57.4 °F /  14.1 °C 29.89 in /  1012.1 hPa WNW 2.4 mph /  3.9 km/h 5.8 mph /  9.3 km/h 66 % 0.00 in /  0 mm
21:32 69.0 °F /  20.6 °C 55.4 °F /  13 °C 29.90 in /  1012.4 hPa North 1.4 mph /  2.3 km/h 5.8 mph /  9.3 km/h 62 % 0.00 in /  0 mm
21:37 68.9 °F /  20.5 °C 55.8 °F /  13.2 °C 29.90 in /  1012.4 hPa North 0.5 mph /  0.8 km/h 4.0 mph /  6.4 km/h 63 % 0.00 in /  0 mm
21:42 68.8 °F /  20.4 °C 54.8 °F /  12.7 °C 29.90 in /  1012.4 hPa North 3.6 mph /  5.8 km/h 11.5 mph /  18.5 km/h 61 % 0.00 in /  0 mm
21:47 68.9 °F /  20.5 °C 54.9 °F /  12.7 °C 29.90 in /  1012.4 hPa NE 3.8 mph /  6.1 km/h 8.1 mph /  13 km/h 61 % 0.00 in /  0 mm
21:52 69.0 °F /  20.6 °C 55.0 °F /  12.8 °C 29.90 in /  1012.4 hPa WNW 4.3 mph /  6.9 km/h 8.0 mph /  12.9 km/h 61 % 0.00 in /  0 mm
21:57 69.0 °F /  20.6 °C 55.9 °F /  13.3 °C 29.90 in /  1012.4 hPa NNE 1.3 mph /  2.1 km/h 5.8 mph /  9.3 km/h 63 % 0.00 in /  0 mm
22:02 68.9 °F /  20.5 °C 55.8 °F /  13.2 °C 29.90 in /  1012.4 hPa NNW 2.8 mph /  4.5 km/h 7.0 mph /  11.3 km/h 63 % 0.00 in /  0 mm
22:08 68.9 °F /  20.5 °C 56.2 °F /  13.4 °C 29.91 in /  1012.8 hPa NNW 0.8 mph /  1.3 km/h 8.1 mph /  13 km/h 64 % 0.00 in /  0 mm
22:13 68.9 °F /  20.5 °C 56.2 °F /  13.4 °C 29.91 in /  1012.8 hPa North 3.3 mph /  5.3 km/h 10.4 mph /  16.7 km/h 64 % 0.00 in /  0 mm
22:18 68.8 °F /  20.4 °C 56.6 °F /  13.7 °C 29.91 in /  1012.8 hPa North 2.4 mph /  3.9 km/h 5.8 mph /  9.3 km/h 65 % 0.00 in /  0 mm
22:23 68.6 °F /  20.3 °C 56.4 °F /  13.6 °C 29.91 in /  1012.8 hPa NNE 2.6 mph /  4.2 km/h 4.0 mph /  6.4 km/h 65 % 0.00 in /  0 mm
22:28 68.5 °F /  20.3 °C 55.4 °F /  13 °C 29.91 in /  1012.8 hPa ENE 5.1 mph /  8.2 km/h 8.0 mph /  12.9 km/h 63 % 0.00 in /  0 mm
22:33 68.4 °F /  20.2 °C 55.7 °F /  13.2 °C 29.91 in /  1012.8 hPa NE 4.8 mph /  7.7 km/h 8.1 mph /  13 km/h 64 % 0.00 in /  0 mm
22:38 68.2 °F /  20.1 °C 55.1 °F /  12.8 °C 29.91 in /  1012.8 hPa North 6.3 mph /  10.1 km/h 13.8 mph /  22.2 km/h 63 % 0.00 in /  0 mm
22:43 68.1 °F /  20.1 °C 55.0 °F /  12.8 °C 29.91 in /  1012.8 hPa North 5.6 mph /  9 km/h 9.2 mph /  14.8 km/h 63 % 0.00 in /  0 mm
22:48 68.0 °F /  20 °C 55.4 °F /  13 °C 29.91 in /  1012.8 hPa NE 3.8 mph /  6.1 km/h 7.0 mph /  11.3 km/h 64 % 0.00 in /  0 mm
22:53 68.0 °F /  20 °C 55.4 °F /  13 °C 29.91 in /  1012.8 hPa NNW 1.1 mph /  1.8 km/h 4.6 mph /  7.4 km/h 64 % 0.00 in /  0 mm
22:58 67.8 °F /  19.9 °C 55.2 °F /  12.9 °C 29.92 in /  1013.1 hPa NNW 4.1 mph /  6.6 km/h 8.1 mph /  13 km/h 64 % 0.00 in /  0 mm
23:03 67.7 °F /  19.8 °C 55.1 °F /  12.8 °C 29.92 in /  1013.1 hPa North 4.7 mph /  7.6 km/h 8.0 mph /  12.9 km/h 64 % 0.00 in /  0 mm
23:08 67.6 °F /  19.8 °C 55.4 °F /  13 °C 29.92 in /  1013.1 hPa NE 2.1 mph /  3.4 km/h 8.1 mph /  13 km/h 65 % 0.00 in /  0 mm
23:15 67.4 °F /  19.7 °C 55.2 °F /  12.9 °C 29.92 in /  1013.1 hPa NNE 4.1 mph /  6.6 km/h 8.1 mph /  13 km/h 65 % 0.00 in /  0 mm
23:20 67.2 °F /  19.6 °C 55.5 °F /  13.1 °C 29.92 in /  1013.1 hPa West 1.7 mph /  2.7 km/h 4.0 mph /  6.4 km/h 66 % 0.00 in /  0 mm
23:25 67.0 °F /  19.4 °C 54.8 °F /  12.7 °C 29.93 in /  1013.4 hPa NNE 3.6 mph /  5.8 km/h 8.1 mph /  13 km/h 65 % 0.00 in /  0 mm
23:26 67.0 °F /  19.4 °C 54.8 °F /  12.7 °C 29.93 in /  1013.4 hPa North 2.5 mph /  4 km/h 4.6 mph /  7.4 km/h 65 % 0.00 in /  0 mm
23:28 66.9 °F /  19.4 °C 54.7 °F /  12.6 °C 29.93 in /  1013.4 hPa North 4.3 mph /  6.9 km/h 10.4 mph /  16.7 km/h 65 % 0.00 in /  0 mm
23:31 66.8 °F /  19.3 °C 54.2 °F /  12.3 °C 29.93 in /  1013.4 hPa NNE 6.0 mph /  9.7 km/h 10.0 mph /  16.1 km/h 64 % 0.00 in /  0 mm
23:32 66.7 °F /  19.3 °C 53.7 °F /  12.1 °C 29.93 in /  1013.4 hPa NE 4.3 mph /  6.9 km/h 10.4 mph /  16.7 km/h 63 % 0.00 in /  0 mm
23:37 66.6 °F /  19.2 °C 54.0 °F /  12.2 °C 29.93 in /  1013.4 hPa NNW 3.8 mph /  6.1 km/h 8.1 mph /  13 km/h 64 % 0.00 in /  0 mm
23:42 66.4 °F /  19.1 °C 53.4 °F /  11.9 °C 29.93 in /  1013.4 hPa NNE 5.1 mph /  8.2 km/h 11.0 mph /  17.7 km/h 63 % 0.00 in /  0 mm
23:47 66.3 °F /  19.1 °C 53.8 °F /  12.1 °C 29.93 in /  1013.4 hPa NE 3.1 mph /  5 km/h 9.0 mph /  14.5 km/h 64 % 0.00 in /  0 mm
23:52 66.2 °F /  19 °C 53.7 °F /  12.1 °C 29.93 in /  1013.4 hPa North 5.2 mph /  8.4 km/h 12.0 mph /  19.3 km/h 64 % 0.00 in /  0 mm
23:57 66.1 °F /  18.9 °C 54.0 °F /  12.2 °C 29.93 in /  1013.4 hPa North 7.7 mph /  12.4 km/h 16.0 mph /  25.7 km/h 65 % 0.00 in /  0 mm
Crab Meadow Weather
Compliments of Weather Underground - 3 mb

Script developed by  Jim McMurry - jmcmurry@mwt.net Adapted for the template by  Wim van der Kuil - Leuven-Template.eu

Weather Terms: Hail - Precipitation in the form of lumps of ice that form during some thunderstorms.